Time;durP1;ratioP1;P1;durP2;ratioP2;P2;SDS_P1;SDS_P2;PMS_P1;PMS_P2;Temp;Humidity;BMP_temperature;BMP_pressure;BME280_temperature;BME280_humidity;BME280_pressure;Samples;Min_cycle;Max_cycle;Signal;HPM_P1;HPM_P2
2021/04/13 00:01:20;;;;;;;3.20;1.70;;;11.10;84.10;18.00;100280.00;;;;5031063;28;20285;-69
2021/04/13 00:04:07;;;;;;;3.63;2.13;;;11.10;84.00;18.30;100279.00;;;;5031007;28;20183;-69
2021/04/13 00:06:50;;;;;;;3.63;1.92;;;11.10;83.80;18.40;100275.00;;;;5030870;28;20669;-69
2021/04/13 00:09:29;;;;;;;3.63;1.90;;;11.10;84.20;18.40;100278.00;;;;4997753;28;20202;-68
2021/04/13 00:12:09;;;;;;;3.80;1.75;;;11.00;84.00;18.30;100271.00;;;;5029379;28;20504;-69
2021/04/13 00:14:39;;;;;;;3.30;1.67;;;11.00;84.10;18.30;100268.00;;;;5013377;28;20186;-69
2021/04/13 00:17:14;;;;;;;3.22;1.60;;;11.00;84.10;18.20;100259.00;;;;4996813;28;20695;-69
2021/04/13 00:20:01;;;;;;;3.40;1.70;;;11.00;84.00;18.40;100259.00;;;;5029647;28;20248;-69
2021/04/13 00:22:27;;;;;;;3.60;1.90;;;11.00;84.10;18.30;100262.00;;;;5029318;28;20281;-69
2021/04/13 00:24:53;;;;;;;3.50;1.90;;;11.00;84.00;18.40;100261.00;;;;5029526;28;20174;-69
2021/04/13 00:27:22;;;;;;;3.60;1.73;;;11.00;83.90;18.30;100272.00;;;;5012638;28;20661;-69
2021/04/13 00:29:48;;;;;;;3.42;1.75;;;11.00;84.00;18.20;100256.00;;;;5013515;28;20473;-69
2021/04/13 00:32:14;;;;;;;3.30;1.80;;;11.00;84.00;18.20;100256.00;;;;5028601;28;20264;-69
2021/04/13 00:34:59;;;;;;;3.60;1.67;;;11.00;84.10;18.20;100272.00;;;;4996338;28;20233;-69
2021/04/13 00:37:30;;;;;;;3.47;1.83;;;11.00;84.10;18.20;100268.00;;;;5000277;28;20815;-69
2021/04/13 00:40:29;;;;;;;3.35;1.60;;;11.00;84.00;18.10;100273.00;;;;4997063;28;20225;-69
2021/04/13 00:43:00;;;;;;;3.33;1.70;;;11.00;84.00;18.20;100259.00;;;;4995466;28;20309;-69
2021/04/13 00:45:31;;;;;;;3.63;2.00;;;11.00;84.00;18.20;100274.00;;;;4996959;28;20258;-69
2021/04/13 00:47:57;;;;;;;3.20;1.70;;;11.00;83.80;18.20;100265.00;;;;4995487;28;20656;-69
2021/04/13 00:50:32;;;;;;;3.40;1.70;;;11.00;84.10;18.20;100278.00;;;;4996695;28;20476;-69
2021/04/13 00:53:00;;;;;;;3.83;1.63;;;11.00;83.90;18.20;100268.00;;;;4995735;28;20210;-70
2021/04/13 00:55:36;;;;;;;3.47;1.95;;;10.90;83.80;18.20;100267.00;;;;4996487;28;20270;-70
2021/04/13 00:58:11;;;;;;;3.38;1.65;;;10.90;83.70;18.10;100272.00;;;;4996303;28;20189;-70
2021/04/13 01:00:41;;;;;;;3.33;1.50;;;11.00;83.70;18.30;100260.00;;;;5012154;28;20269;-69
2021/04/13 01:03:07;;;;;;;3.25;1.80;;;10.90;83.60;18.00;100270.00;;;;4994186;28;20213;-70
2021/04/13 01:05:37;;;;;;;3.20;1.60;;;10.90;84.00;18.30;100264.00;;;;5012417;28;20590;-70
2021/04/13 01:08:18;;;;;;;3.63;1.85;;;10.90;84.60;18.10;100266.00;;;;5028232;28;20206;-70
2021/04/13 01:10:44;;;;;;;3.30;1.60;;;10.90;83.70;18.10;100256.00;;;;5011924;28;20186;-70
2021/04/13 01:13:20;;;;;;;3.40;2.00;;;10.90;83.80;18.10;100263.00;;;;4994748;28;20309;-70
2021/04/13 01:15:50;;;;;;;3.40;1.83;;;10.90;83.60;18.20;100256.00;;;;5029343;28;20191;-70
2021/04/13 01:18:29;;;;;;;3.42;1.60;;;10.90;83.60;18.10;100249.00;;;;4995526;28;20190;-70
2021/04/13 01:21:40;;;;;;;3.47;1.55;;;10.90;83.60;18.20;100242.00;;;;4996568;28;20584;-70
2021/04/13 01:24:12;;;;;;;3.27;1.40;;;10.90;83.70;18.10;100236.00;;;;5028527;28;20194;-70
2021/04/13 01:26:44;;;;;;;3.15;1.60;;;10.90;83.60;18.00;100236.00;;;;5012919;28;20449;-70
2021/04/13 01:29:10;;;;;;;3.60;1.75;;;10.90;83.70;18.30;100238.00;;;;4995690;28;20187;-70
2021/04/13 01:34:21;;;;;;;3.60;2.03;;;10.90;83.70;18.30;100231.00;;;;4997509;28;20186;-70
2021/04/13 01:37:01;;;;;;;3.10;1.55;;;10.90;83.70;18.20;100223.00;;;;5012171;28;20213;-70
2021/04/13 01:39:29;;;;;;;3.10;1.58;;;10.80;83.50;18.00;100224.00;;;;5029534;28;20213;-71
2021/04/13 01:42:00;;;;;;;3.47;1.70;;;10.80;83.50;18.30;100217.00;;;;4995842;28;20349;-71
2021/04/13 01:44:48;;;;;;;3.00;1.38;;;10.80;83.50;18.10;100225.00;;;;4996328;28;20221;-70
2021/04/13 01:47:16;;;;;;;3.20;1.48;;;10.80;83.50;18.00;100229.00;;;;4995655;28;20298;-70
2021/04/13 01:49:51;;;;;;;4.00;1.87;;;10.80;83.60;18.00;100218.00;;;;5010989;28;20187;-70
2021/04/13 01:52:32;;;;;;;3.42;1.60;;;10.80;83.70;18.20;100215.00;;;;4994983;28;20508;-70
2021/04/13 01:55:00;;;;;;;3.20;1.70;;;10.80;83.50;18.00;100218.00;;;;5012769;28;20186;-70
2021/04/13 01:57:51;;;;;;;2.90;1.08;;;10.80;83.70;18.10;100211.00;;;;4995015;28;20213;-70
2021/04/13 02:00:31;;;;;;;3.40;1.67;;;10.80;83.60;18.20;100231.00;;;;5012133;28;20189;-71
2021/04/13 02:03:24;;;;;;;3.03;1.50;;;10.80;83.50;18.20;100234.00;;;;4995482;28;20429;-71
2021/04/13 02:05:54;;;;;;;3.55;1.73;;;10.80;83.50;18.10;100234.00;;;;5027877;28;20239;-71
2021/04/13 02:08:29;;;;;;;3.13;1.40;;;10.80;83.70;18.20;100230.00;;;;4979477;28;20654;-71
2021/04/13 02:11:08;;;;;;;3.10;1.50;;;10.80;83.50;17.90;100239.00;;;;4996513;28;20641;-71
2021/04/13 02:14:02;;;;;;;3.08;1.50;;;10.80;83.60;18.10;100238.00;;;;4995469;28;20288;-71
2021/04/13 02:16:39;;;;;;;2.92;1.30;;;10.80;83.50;18.00;100244.00;;;;5014078;28;20306;-71
2021/04/13 02:19:07;;;;;;;3.70;1.50;;;10.80;83.60;18.00;100238.00;;;;4994508;28;20615;-70
2021/04/13 02:21:46;;;;;;;3.60;1.92;;;10.80;83.60;18.00;100246.00;;;;4995650;28;20688;-70
2021/04/13 02:24:24;;;;;;;3.13;1.65;;;10.80;83.60;18.00;100237.00;;;;4994574;28;20240;-71
2021/04/13 02:26:54;;;;;;;3.40;1.65;;;10.80;83.60;17.90;100229.00;;;;4995509;28;20215;-71
2021/04/13 02:29:23;;;;;;;3.33;1.50;;;10.70;83.30;18.10;100233.00;;;;4998003;28;20264;-70
2021/04/13 02:31:58;;;;;;;3.33;1.60;;;10.80;83.60;17.90;100230.00;;;;4998275;28;20732;-71
2021/04/13 02:34:34;;;;;;;3.30;1.60;;;10.70;83.50;17.80;100200.00;;;;5014586;28;20269;-71
2021/04/13 02:37:06;;;;;;;3.45;1.80;;;10.70;83.50;18.00;100232.00;;;;5031973;28;20203;-70
2021/04/13 02:39:33;;;;;;;3.40;1.50;;;10.70;83.30;18.10;100239.00;;;;4998814;28;20312;-71
2021/04/13 02:42:07;;;;;;;3.00;1.60;;;10.70;83.60;18.00;100237.00;;;;5015135;28;20254;-71
2021/04/13 02:44:33;;;;;;;3.25;1.75;;;10.70;83.30;17.80;100241.00;;;;4998364;28;20197;-71
2021/04/13 02:47:06;;;;;;;3.20;1.60;;;10.70;83.50;17.90;100234.00;;;;4997947;28;20211;-71
2021/04/13 02:49:32;;;;;;;3.10;1.40;;;10.70;83.30;17.60;100241.00;;;;5014499;28;20237;-71
2021/04/13 02:52:05;;;;;;;3.10;1.53;;;10.70;83.30;18.10;100239.00;;;;4998151;28;20599;-71
2021/04/13 02:55:02;;;;;;;3.40;1.55;;;10.70;83.30;17.70;100235.00;;;;4998639;28;20211;-71
2021/04/13 02:57:45;;;;;;;3.05;1.70;;;10.70;83.40;17.90;100235.00;;;;4990990;28;20215;-71
2021/04/13 03:00:30;;;;;;;3.58;1.63;;;10.70;83.30;17.90;100229.00;;;;4983602;28;20675;-70
2021/04/13 03:03:02;;;;;;;3.10;1.50;;;10.70;83.40;18.00;100235.00;;;;5015096;28;20202;-71
2021/04/13 03:05:28;;;;;;;3.45;1.67;;;10.70;83.40;17.80;100235.00;;;;4999215;28;20193;-71
2021/04/13 03:07:56;;;;;;;3.55;1.80;;;10.60;83.30;17.80;100235.00;;;;5014564;28;20266;-71
2021/04/13 03:10:28;;;;;;;3.20;1.63;;;10.70;83.30;18.00;100231.00;;;;5030661;28;20198;-71
2021/04/13 03:12:54;;;;;;;3.17;1.60;;;10.70;83.50;17.80;100218.00;;;;5014786;28;20564;-71
2021/04/13 03:15:30;;;;;;;3.10;1.30;;;10.60;83.10;17.60;100210.00;;;;5014076;28;20191;-71
2021/04/13 03:17:59;;;;;;;3.20;1.60;;;10.60;83.30;17.90;100206.00;;;;5014090;28;20433;-71
2021/04/13 03:20:28;;;;;;;3.33;1.73;;;10.60;83.20;17.70;100193.00;;;;5014226;28;20190;-71
2021/04/13 03:22:57;;;;;;;3.00;1.40;;;10.60;83.30;17.70;100188.00;;;;4997419;28;20712;-70
2021/04/13 03:25:25;;;;;;;3.40;1.60;;;10.60;83.30;17.90;100191.00;;;;4998133;28;20274;-71
2021/04/13 03:27:50;;;;;;;3.25;1.70;;;10.60;83.10;17.80;100206.00;;;;4998157;28;20293;-71
2021/04/13 03:30:27;;;;;;;3.20;1.40;;;10.60;83.20;18.00;100209.00;;;;4997575;28;20704;-71
2021/04/13 03:32:59;;;;;;;3.25;1.77;;;10.60;83.20;17.90;100215.00;;;;4997955;28;20210;-71
2021/04/13 03:35:26;;;;;;;3.35;1.75;;;10.60;83.20;17.80;100232.00;;;;5029936;28;20652;-71
2021/04/13 03:37:54;;;;;;;3.40;1.70;;;10.60;83.20;18.00;100212.00;;;;4997236;28;20214;-72
2021/04/13 03:40:21;;;;;;;3.78;1.95;;;10.60;83.20;18.00;100231.00;;;;4979971;28;20186;-71
2021/04/13 03:43:07;;;;;;;3.20;1.83;;;10.60;83.10;18.00;100236.00;;;;5013809;28;20250;-71
2021/04/13 03:45:34;;;;;;;4.00;1.73;;;10.60;83.20;17.80;100216.00;;;;5013832;28;20171;-71
2021/04/13 03:48:09;;;;;;;3.40;1.70;;;10.60;83.10;17.70;100211.00;;;;5014118;28;20211;-71
2021/04/13 03:50:39;;;;;;;3.00;1.60;;;10.60;83.10;17.60;100200.00;;;;4980041;28;20562;-71
2021/04/13 03:53:11;;;;;;;3.70;2.10;;;10.60;83.10;17.80;100219.00;;;;4998169;28;20214;-72
2021/04/13 03:55:37;;;;;;;3.15;1.70;;;10.60;83.10;17.80;100219.00;;;;4997844;28;20187;-71
2021/04/13 03:58:24;;;;;;;3.50;1.92;;;10.60;83.20;17.70;100224.00;;;;5013349;28;20175;-72
2021/04/13 04:00:52;;;;;;;3.45;1.90;;;10.50;83.10;17.70;100228.00;;;;5013737;28;20207;-71
2021/04/13 04:03:17;;;;;;;3.67;1.80;;;10.60;83.00;17.70;100225.00;;;;5013153;28;20645;-71
2021/04/13 04:05:56;;;;;;;4.57;2.20;;;10.50;82.90;17.90;100229.00;;;;5012765;28;20179;-71
2021/04/13 04:08:37;;;;;;;3.55;1.80;;;10.50;83.00;17.70;100220.00;;;;4997931;28;20265;-71
2021/04/13 04:11:03;;;;;;;3.50;2.00;;;10.50;83.00;17.90;100223.00;;;;5013325;28;20293;-72
2021/04/13 04:13:36;;;;;;;3.20;1.85;;;10.50;83.00;17.70;100227.00;;;;4996973;28;20305;-71
2021/04/13 04:16:06;;;;;;;3.80;2.28;;;10.50;83.00;17.90;100235.00;;;;4996799;28;20604;-71
2021/04/13 04:18:49;;;;;;;3.92;2.20;;;10.50;83.00;17.80;100225.00;;;;5030699;28;20179;-71
2021/04/13 04:21:36;;;;;;;3.65;2.17;;;10.50;83.00;17.70;100226.00;;;;5013125;28;20310;-71
2021/04/13 04:24:09;;;;;;;4.68;2.30;;;10.50;83.00;17.70;100223.00;;;;5028781;28;20568;-71
2021/04/13 04:26:49;;;;;;;4.03;2.20;;;10.50;83.00;18.00;100219.00;;;;4996945;28;20540;-71
2021/04/13 04:29:29;;;;;;;3.80;2.25;;;10.50;83.00;17.80;100236.00;;;;5012832;28;20179;-73
2021/04/13 04:31:56;;;;;;;4.15;2.50;;;10.50;83.00;17.70;100225.00;;;;5030383;28;20253;-74
2021/04/13 04:34:22;;;;;;;3.50;2.05;;;10.50;83.00;17.90;100233.00;;;;5012090;28;20648;-73
2021/04/13 04:36:54;;;;;;;4.23;2.20;;;10.50;83.00;17.80;100240.00;;;;5029496;28;20210;-73
2021/04/13 04:39:34;;;;;;;3.30;2.10;;;10.50;82.90;17.70;100233.00;;;;4995791;28;20564;-73
2021/04/13 04:42:29;;;;;;;3.95;2.30;;;10.40;82.90;17.80;100227.00;;;;5029173;28;20793;-74
2021/04/13 04:45:14;;;;;;;4.68;2.70;;;10.40;82.90;17.80;100235.00;;;;5015241;28;20273;-74
2021/04/13 04:47:40;;;;;;;4.05;2.50;;;10.40;82.90;17.60;100242.00;;;;5030198;28;21079;-73
2021/04/13 04:50:12;;;;;;;3.63;2.30;;;10.40;82.90;17.60;100245.00;;;;5012463;28;20187;-74
2021/04/13 04:52:38;;;;;;;4.15;2.60;;;10.40;82.90;17.60;100252.00;;;;5012238;28;20246;-73
2021/04/13 04:55:04;;;;;;;3.63;2.13;;;10.40;82.90;17.90;100241.00;;;;5012240;28;20218;-74
2021/04/13 04:57:30;;;;;;;4.03;2.58;;;10.40;82.90;17.80;100272.00;;;;4996372;28;20217;-74
2021/04/13 04:59:56;;;;;;;3.70;2.13;;;10.40;82.90;17.60;100268.00;;;;5012252;28;20195;-74
2021/04/13 05:02:22;;;;;;;4.33;2.50;;;10.40;82.90;17.70;100267.00;;;;5028964;28;20203;-73
2021/04/13 05:04:47;;;;;;;3.70;2.40;;;10.40;82.80;17.70;100253.00;;;;5012243;28;20183;-74
2021/04/13 05:07:13;;;;;;;3.47;2.30;;;10.40;82.90;17.90;100259.00;;;;5028476;28;20211;-74
2021/04/13 05:09:39;;;;;;;3.77;2.40;;;10.40;82.80;17.80;100259.00;;;;5012185;28;20262;-73
2021/04/13 05:12:06;;;;;;;4.30;3.00;;;10.40;82.90;17.70;100271.00;;;;4996455;28;20216;-74
2021/04/13 05:14:32;;;;;;;3.83;2.35;;;10.40;83.00;17.80;100278.00;;;;4995582;28;20249;-73
2021/04/13 05:16:57;;;;;;;3.67;2.27;;;10.40;82.90;17.50;100255.00;;;;5029962;28;20218;-74
2021/04/13 05:19:23;;;;;;;3.70;2.20;;;10.40;82.90;17.80;100265.00;;;;5011633;28;20584;-74
2021/04/13 05:21:49;;;;;;;3.70;2.10;;;10.30;82.80;17.50;100259.00;;;;5011532;28;20298;-74
2021/04/13 05:24:15;;;;;;;3.77;2.30;;;10.40;82.90;17.40;100249.00;;;;5029000;28;20216;-73
2021/04/13 05:26:40;;;;;;;3.67;2.30;;;10.40;82.90;17.80;100269.00;;;;5012214;28;20214;-74
2021/04/13 05:29:07;;;;;;;4.00;2.60;;;10.40;82.80;17.70;100265.00;;;;5028344;28;20229;-73
2021/04/13 05:31:34;;;;;;;3.60;2.28;;;10.40;82.90;17.80;100259.00;;;;5011712;28;20562;-74
2021/04/13 05:34:00;;;;;;;4.15;2.55;;;10.40;82.80;17.60;100271.00;;;;4995799;28;20265;-73
2021/04/13 05:36:26;;;;;;;4.60;2.67;;;10.40;82.90;17.80;100261.00;;;;5011563;28;20199;-72
2021/04/13 05:38:52;;;;;;;4.13;2.85;;;10.40;82.90;17.40;100268.00;;;;4996262;28;20221;-71
2021/04/13 05:41:17;;;;;;;4.20;2.80;;;10.30;82.80;17.50;100269.00;;;;5011423;28;20203;-73
2021/04/13 05:43:43;;;;;;;4.30;2.67;;;10.30;82.80;17.40;100262.00;;;;4995806;28;20175;-73
2021/04/13 05:46:13;;;;;;;3.80;2.10;;;10.30;82.80;17.50;100278.00;;;;4995428;28;20225;-73
2021/04/13 05:48:39;;;;;;;4.20;2.70;;;10.30;82.60;17.60;100276.00;;;;5012039;28;20430;-73
2021/04/13 05:51:05;;;;;;;4.40;2.77;;;10.30;82.70;17.50;100281.00;;;;4994918;28;20252;-73
2021/04/13 05:53:31;;;;;;;4.20;2.70;;;10.30;82.60;17.60;100287.00;;;;5012182;28;20219;-73
2021/04/13 05:55:57;;;;;;;3.87;2.53;;;10.30;82.80;17.50;100287.00;;;;5011617;28;20206;-73
2021/04/13 05:58:34;;;;;;;3.90;2.60;;;10.30;82.80;17.50;100287.00;;;;4995822;28;20260;-73
2021/04/13 06:01:03;;;;;;;3.80;2.47;;;10.30;82.80;17.70;100277.00;;;;5011934;28;20209;-73
2021/04/13 06:03:29;;;;;;;3.55;2.15;;;10.30;82.80;17.60;100297.00;;;;4996919;28;20656;-73
2021/04/13 06:05:55;;;;;;;3.50;2.10;;;10.30;82.80;17.60;100285.00;;;;5015091;28;20199;-73
2021/04/13 06:08:21;;;;;;;4.32;2.80;;;10.30;82.80;17.70;100288.00;;;;4999744;28;20442;-73
2021/04/13 06:10:47;;;;;;;3.60;2.33;;;10.30;82.80;17.40;100284.00;;;;5014947;28;20679;-73
2021/04/13 06:13:12;;;;;;;4.47;2.80;;;10.30;82.80;17.40;100292.00;;;;5016603;28;20226;-73
2021/04/13 06:15:38;;;;;;;4.70;2.97;;;10.30;82.80;17.80;100301.00;;;;5013461;28;20198;-74
2021/04/13 06:18:04;;;;;;;4.50;3.00;;;10.30;82.80;17.30;100292.00;;;;5014239;28;20796;-73
2021/04/13 06:20:30;;;;;;;4.45;2.85;;;10.30;82.80;17.30;100294.00;;;;4998417;28;20604;-73
2021/04/13 06:22:58;;;;;;;3.70;2.47;;;10.30;82.80;17.40;100288.00;;;;5015530;28;20179;-73
2021/04/13 06:25:26;;;;;;;4.07;2.70;;;10.30;82.80;17.30;100296.00;;;;5014602;28;20249;-73
2021/04/13 06:27:51;;;;;;;4.15;2.83;;;10.30;82.80;17.50;100304.00;;;;5014278;28;20612;-73
2021/04/13 06:30:19;;;;;;;4.00;2.70;;;10.20;82.60;17.40;100303.00;;;;5014497;28;20221;-73
2021/04/13 06:32:45;;;;;;;4.20;3.00;;;10.20;82.80;17.20;100303.00;;;;4982539;28;20305;-73
2021/04/13 06:35:11;;;;;;;4.67;2.67;;;10.30;82.80;17.40;100295.00;;;;4998302;28;20298;-73
2021/04/13 06:37:40;;;;;;;4.28;2.58;;;10.30;82.90;17.40;100293.00;;;;4997876;28;20207;-72
2021/04/13 06:40:07;;;;;;;4.20;2.90;;;10.30;82.80;17.50;100274.00;;;;4998851;28;20178;-73
2021/04/13 06:42:56;;;;;;;4.47;2.78;;;10.20;82.60;17.50;100287.00;;;;4980940;28;20566;-73
2021/04/13 06:45:46;;;;;;;4.22;2.85;;;10.30;83.20;17.40;100292.00;;;;4998623;28;20273;-73
2021/04/13 06:48:48;;;;;;;4.10;2.65;;;10.30;82.80;17.50;100289.00;;;;4998661;28;20186;-73
2021/04/13 06:51:45;;;;;;;3.72;2.28;;;10.20;82.60;17.30;100304.00;;;;5017229;28;20202;-73
2021/04/13 06:54:42;;;;;;;4.80;2.63;;;10.20;82.80;17.40;100307.00;;;;5014963;28;20649;-74
2021/04/13 06:57:28;;;;;;;4.90;2.67;;;10.20;82.70;17.20;100309.00;;;;4998587;28;20217;-73
2021/04/13 07:00:06;;;;;;;5.15;3.08;;;10.20;82.70;17.30;100302.00;;;;5015546;28;20187;-73
2021/04/13 07:03:15;;;;;;;4.00;2.42;;;10.20;82.60;17.60;100300.00;;;;5016228;28;20718;-73
2021/04/13 07:06:00;;;;;;;3.90;2.33;;;10.20;82.60;17.50;100304.00;;;;4997612;28;20702;-75
2021/04/13 07:08:39;;;;;;;4.10;2.08;;;10.20;82.70;17.30;100315.00;;;;4996295;28;20230;-73
2021/04/13 07:11:15;;;;;;;4.20;2.65;;;10.20;82.60;17.30;100321.00;;;;4988780;28;20810;-73
2021/04/13 07:14:25;;;;;;;3.67;2.53;;;10.20;82.60;17.30;100315.00;;;;5014535;28;20283;-73
2021/04/13 07:17:02;;;;;;;4.50;2.90;;;10.20;82.50;17.60;100316.00;;;;5019681;28;20718;-73
2021/04/13 07:20:01;;;;;;;3.95;2.75;;;10.20;82.60;17.10;100316.00;;;;4996659;28;20183;-74
2021/04/13 07:23:01;;;;;;;3.88;2.42;;;10.20;82.60;17.20;100322.00;;;;5000163;28;20211;-72
2021/04/13 07:25:34;;;;;;;4.00;2.63;;;10.20;82.50;17.40;100302.00;;;;4985502;28;20183;-73
2021/04/13 07:28:05;;;;;;;4.25;2.42;;;10.20;82.50;17.30;100313.00;;;;4996775;28;20207;-72
2021/04/13 07:30:43;;;;;;;3.65;2.30;;;10.20;82.50;17.10;100317.00;;;;4997778;28;20183;-73
2021/04/13 07:33:13;;;;;;;4.28;2.60;;;10.20;82.60;17.20;100304.00;;;;4998529;28;20555;-73
2021/04/13 07:35:39;;;;;;;3.70;2.30;;;10.20;82.50;17.10;100307.00;;;;4996809;28;20614;-74
2021/04/13 07:38:28;;;;;;;3.80;2.53;;;10.20;82.50;17.10;100307.00;;;;4980751;28;20269;-73
2021/04/13 07:41:05;;;;;;;3.35;1.98;;;10.20;82.50;17.10;100306.00;;;;4996935;28;20467;-74
2021/04/13 07:43:37;;;;;;;4.40;2.45;;;10.20;82.60;16.90;100315.00;;;;4983007;28;20194;-74
2021/04/13 07:46:24;;;;;;;4.15;2.38;;;10.20;82.50;17.30;100324.00;;;;5013278;28;20290;-73
2021/04/13 07:49:15;;;;;;;3.70;2.30;;;10.20;82.60;17.20;100334.00;;;;5014359;28;20206;-74
2021/04/13 07:51:45;;;;;;;3.83;2.17;;;10.20;82.50;17.10;100324.00;;;;5031911;28;20290;-74
2021/04/13 07:54:56;;;;;;;4.00;2.28;;;10.20;82.50;17.10;100321.00;;;;4998380;28;20225;-74
2021/04/13 07:57:56;;;;;;;4.20;2.35;;;10.20;82.50;17.20;100331.00;;;;4997098;28;20209;-75
2021/04/13 08:00:33;;;;;;;3.60;2.00;;;10.20;82.50;17.20;100317.00;;;;4999301;28;20205;-74
2021/04/13 08:03:21;;;;;;;3.75;2.28;;;10.20;82.50;17.20;100332.00;;;;4997586;28;20660;-73
2021/04/13 08:05:49;;;;;;;3.55;2.10;;;10.20;82.50;17.00;100326.00;;;;5013696;28;20194;-74
2021/04/13 08:08:38;;;;;;;3.58;2.10;;;10.20;82.50;17.20;100342.00;;;;4996692;28;20179;-74
2021/04/13 08:11:15;;;;;;;3.80;2.10;;;10.20;82.50;17.10;100343.00;;;;4982323;28;20301;-74
2021/04/13 08:13:47;;;;;;;4.00;2.25;;;10.20;82.50;17.00;100350.00;;;;5011741;28;20223;-74
2021/04/13 08:16:31;;;;;;;4.07;2.60;;;10.20;82.50;17.10;100355.00;;;;4996423;28;20294;-74
2021/04/13 08:19:31;;;;;;;3.60;1.98;;;10.20;82.50;17.10;100365.00;;;;5010532;28;20255;-73
2021/04/13 08:22:13;;;;;;;3.47;1.95;;;10.20;82.50;17.10;100361.00;;;;5023056;28;20215;-74
2021/04/13 08:24:52;;;;;;;4.75;2.35;;;10.20;82.50;17.00;100352.00;;;;5007184;28;20545;-74
2021/04/13 08:27:42;;;;;;;4.30;2.33;;;10.20;82.50;16.90;100315.00;;;;4990662;28;20277;-74
2021/04/13 08:30:41;;;;;;;3.88;2.10;;;10.20;82.60;17.00;100357.00;;;;4993513;28;20194;-74
2021/04/13 08:33:25;;;;;;;3.58;2.03;;;10.20;82.50;17.10;100344.00;;;;5008859;28;20216;-73
2021/04/13 08:36:24;;;;;;;3.30;1.80;;;10.10;82.50;16.90;100346.00;;;;5010869;28;20206;-73
2021/04/13 08:39:05;;;;;;;3.70;2.22;;;10.10;82.50;17.10;100332.00;;;;4979605;28;20206;-73
2021/04/13 08:41:40;;;;;;;3.83;2.10;;;10.10;82.40;17.10;100332.00;;;;4976346;28;20727;-73
2021/04/13 08:44:48;;;;;;;3.85;2.22;;;10.10;82.40;17.00;100318.00;;;;4989020;28;20190;-73
2021/04/13 08:47:45;;;;;;;3.50;1.85;;;10.10;82.40;17.20;100316.00;;;;5011863;28;20199;-73
2021/04/13 08:50:34;;;;;;;4.88;2.35;;;10.10;82.40;17.20;100317.00;;;;5003395;28;20199;-73
2021/04/13 08:53:22;;;;;;;3.33;1.90;;;10.10;82.40;17.00;100311.00;;;;5013039;28;20282;-74
2021/04/13 08:55:49;;;;;;;4.40;2.45;;;10.10;82.40;17.10;100306.00;;;;5029802;28;20253;-74
2021/04/13 08:58:14;;;;;;;3.83;1.95;;;10.10;83.30;17.00;100317.00;;;;4995049;28;20191;-73
2021/04/13 09:00:45;;;;;;;3.70;1.93;;;10.10;82.40;17.10;100307.00;;;;5029306;28;20191;-73
2021/04/13 09:03:16;;;;;;;3.83;2.13;;;10.10;82.40;17.00;100303.00;;;;4994885;28;20210;-73
2021/04/13 09:05:43;;;;;;;3.78;2.22;;;10.10;82.40;17.10;100311.00;;;;4979498;28;20186;-73
2021/04/13 09:08:30;;;;;;;3.78;2.33;;;10.10;82.40;17.50;100317.00;;;;5012545;28;20214;-74
2021/04/13 09:11:17;;;;;;;4.32;2.33;;;10.10;82.40;17.10;100319.00;;;;5012478;28;20203;-74
2021/04/13 09:13:58;;;;;;;3.55;2.17;;;10.10;82.40;17.10;100321.00;;;;5029021;28;20237;-74
2021/04/13 09:16:24;;;;;;;3.85;1.65;;;10.10;82.40;17.10;100313.00;;;;4983041;28;20217;-74
2021/04/13 09:18:55;;;;;;;3.30;1.95;;;10.10;82.40;17.00;100305.00;;;;4979529;28;20206;-74
2021/04/13 09:21:21;;;;;;;3.65;2.17;;;10.10;82.30;16.90;100312.00;;;;4979529;28;20214;-74
2021/04/13 09:24:21;;;;;;;3.50;2.00;;;10.10;82.40;17.10;100318.00;;;;5029466;28;20179;-74
2021/04/13 09:26:56;;;;;;;3.95;2.05;;;10.10;82.40;17.00;100317.00;;;;5029422;28;20207;-74
2021/04/13 09:29:50;;;;;;;4.55;2.30;;;10.10;82.30;17.10;100317.00;;;;5029219;28;20228;-75
2021/04/13 09:32:26;;;;;;;4.13;2.35;;;10.10;82.30;17.10;100317.00;;;;4995978;28;20229;-74
2021/04/13 09:35:09;;;;;;;3.88;1.98;;;10.10;82.40;17.10;100310.00;;;;5029034;28;20547;-73
2021/04/13 09:38:03;;;;;;;4.05;2.40;;;10.10;82.40;17.20;100307.00;;;;5030512;28;20294;-74
2021/04/13 09:41:06;;;;;;;3.97;2.05;;;10.10;82.40;17.10;100309.00;;;;5034027;28;20193;-75
2021/04/13 09:44:05;;;;;;;3.47;1.92;;;10.10;82.40;17.00;100313.00;;;;4999937;28;20194;-74
2021/04/13 09:47:20;;;;;;;4.28;2.08;;;10.10;82.40;17.20;100319.00;;;;5034001;28;20209;-73
2021/04/13 09:50:19;;;;;;;3.50;2.13;;;10.10;82.40;17.20;100307.00;;;;5032837;28;20320;-74
2021/04/13 09:53:33;;;;;;;3.60;2.05;;;10.10;82.40;17.00;100315.00;;;;5031948;28;20226;-74
2021/04/13 09:56:25;;;;;;;4.15;2.35;;;10.10;82.40;17.10;100311.00;;;;5021241;28;20203;-75
2021/04/13 09:59:08;;;;;;;3.67;1.88;;;10.10;82.40;17.20;100303.00;;;;5014888;28;20178;-74
2021/04/13 10:02:18;;;;;;;3.90;2.08;;;10.10;82.50;17.20;100293.00;;;;5017635;28;20242;-73
2021/04/13 10:05:06;;;;;;;4.60;2.33;;;10.10;82.40;17.20;100286.00;;;;5018071;28;20599;-72
2021/04/13 10:07:48;;;;;;;3.80;2.00;;;10.10;82.50;17.20;100283.00;;;;4999922;28;20210;-73
2021/04/13 10:10:39;;;;;;;3.70;1.90;;;10.10;82.50;17.20;100280.00;;;;5024026;28;20190;-74
2021/04/13 10:13:47;;;;;;;3.78;2.20;;;10.00;82.40;17.20;100283.00;;;;4998322;28;20214;-73
2021/04/13 10:16:53;;;;;;;3.38;1.90;;;10.00;82.40;17.10;100281.00;;;;5032771;28;20214;-73
2021/04/13 10:19:28;;;;;;;3.72;2.17;;;10.00;82.40;17.20;100279.00;;;;5000238;28;20190;-73
2021/04/13 10:22:18;;;;;;;3.65;1.92;;;10.00;82.40;17.30;100270.00;;;;5015711;28;20560;-73
2021/04/13 10:25:19;;;;;;;4.35;2.40;;;10.00;82.40;17.20;100271.00;;;;5014807;28;20233;-73
2021/04/13 10:28:13;;;;;;;4.35;2.17;;;10.00;82.40;17.30;100239.00;;;;5014244;28;20241;-73
2021/04/13 10:31:32;;;;;;;3.92;2.10;;;10.00;82.40;16.90;100266.00;;;;5016096;28;20680;-72
2021/04/13 10:34:28;;;;;;;4.00;2.22;;;10.00;82.40;17.30;100272.00;;;;5031048;28;20245;-73
2021/04/13 10:37:50;;;;;;;3.47;2.13;;;10.00;82.50;17.20;100275.00;;;;5031993;28;20229;-72
2021/04/13 10:41:00;;;;;;;3.50;2.10;;;10.00;82.40;17.20;100276.00;;;;5031824;28;20214;-72
2021/04/13 10:44:32;;;;;;;4.70;2.38;;;10.00;82.40;17.40;100260.00;;;;4991547;28;20231;-72
2021/04/13 10:47:30;;;;;;;3.45;1.90;;;10.00;82.60;17.10;100267.00;;;;4977497;28;20224;-72
2021/04/13 10:50:37;;;;;;;3.42;1.85;;;10.00;82.40;17.30;100272.00;;;;4966728;28;20207;-72
2021/04/13 10:53:47;;;;;;;3.40;2.00;;;10.00;82.50;17.40;100256.00;;;;4995219;28;20215;-72
2021/04/13 10:56:42;;;;;;;4.00;2.17;;;10.00;82.50;17.50;100250.00;;;;4987337;28;20247;-72
2021/04/13 11:00:14;;;;;;;4.65;2.33;;;10.00;82.50;17.50;100236.00;;;;5020036;28;20225;-71
2021/04/13 11:03:22;;;;;;;3.90;2.28;;;10.00;82.50;17.20;100246.00;;;;5007238;28;20871;-71
2021/04/13 11:06:10;;;;;;;5.20;2.58;;;10.00;82.50;17.20;100239.00;;;;5006277;28;20716;-71
2021/04/13 11:09:10;;;;;;;4.10;2.33;;;10.00;82.50;17.30;100250.00;;;;5032500;28;20201;-71
2021/04/13 11:12:10;;;;;;;3.65;2.05;;;10.00;82.50;17.30;100245.00;;;;5014433;28;20207;-71
2021/04/13 11:14:38;;;;;;;4.10;2.15;;;10.00;82.50;17.00;100251.00;;;;5031045;28;20222;-71
2021/04/13 11:17:28;;;;;;;3.60;2.20;;;10.00;82.50;17.40;100247.00;;;;5031746;28;20214;-70
2021/04/13 11:20:56;;;;;;;4.20;2.45;;;10.00;82.60;17.30;100250.00;;;;5014120;28;20521;-70
2021/04/13 11:24:06;;;;;;;4.05;2.30;;;10.00;82.60;17.20;100246.00;;;;5030808;28;20687;-70
2021/04/13 11:26:52;;;;;;;3.88;2.55;;;10.00;82.60;17.20;100251.00;;;;4950140;29;20249;-70
2021/04/13 11:29:46;;;;;;;3.78;2.40;;;10.00;82.50;17.40;100235.00;;;;5026750;28;20195;-70
2021/04/13 11:32:50;;;;;;;3.97;2.47;;;10.00;82.60;17.40;100229.00;;;;4999691;28;20679;-70
2021/04/13 11:35:39;;;;;;;4.00;2.08;;;10.00;82.50;17.20;100232.00;;;;5030568;28;20189;-69
2021/04/13 11:38:44;;;;;;;4.30;2.40;;;10.00;82.60;17.30;100233.00;;;;4999000;28;20189;-69
2021/04/13 11:41:26;;;;;;;3.83;2.08;;;10.00;82.60;17.10;100222.00;;;;5016641;28;20230;-69
2021/04/13 11:44:28;;;;;;;4.18;2.50;;;10.00;82.60;17.20;100228.00;;;;5014994;28;20655;-69